createdAt,value
2017-09-05T00:00:30.923Z,0
2017-09-05T00:01:11.496Z,0
2017-09-05T00:01:52.072Z,0
2017-09-05T00:02:32.656Z,0
2017-09-05T00:03:13.229Z,0
2017-09-05T00:03:53.796Z,0
2017-09-05T00:04:34.375Z,0
2017-09-05T00:06:53.128Z,0
2017-09-05T00:07:33.704Z,0
2017-09-05T00:08:14.278Z,0
2017-09-05T00:08:54.858Z,0
2017-09-05T00:09:35.423Z,0
2017-09-05T00:10:16.000Z,0
2017-09-05T00:10:58.232Z,0
2017-09-05T00:11:38.797Z,0
2017-09-05T00:12:19.437Z,0
2017-09-05T00:13:00.012Z,0
2017-09-05T00:13:40.588Z,0
2017-09-05T00:14:21.171Z,0
2017-09-05T00:15:01.744Z,0
2017-09-05T00:15:42.330Z,0
2017-09-05T00:16:22.896Z,0
2017-09-05T00:17:03.475Z,0
2017-09-05T00:17:44.055Z,0
2017-09-05T00:18:24.628Z,0
2017-09-05T00:19:05.204Z,0
2017-09-05T00:19:45.779Z,0
2017-09-05T00:20:26.352Z,0
2017-09-05T00:21:06.933Z,0
2017-09-05T00:21:47.507Z,0
2017-09-05T00:22:28.092Z,0
2017-09-05T00:23:08.662Z,0
2017-09-05T00:23:49.250Z,0
2017-09-05T00:24:29.818Z,0
2017-09-05T00:25:10.402Z,0
2017-09-05T00:25:50.977Z,0
2017-09-05T00:26:31.557Z,0
2017-09-05T00:27:12.137Z,0
2017-09-05T00:27:52.708Z,0
2017-09-05T00:28:33.302Z,0
2017-09-05T00:29:13.852Z,0
2017-09-05T00:29:54.431Z,0
2017-09-05T00:30:35.010Z,0
2017-09-05T00:31:15.588Z,0
2017-09-05T00:31:56.162Z,0
2017-09-05T00:32:36.739Z,0
2017-09-05T00:33:17.318Z,0
2017-09-05T00:33:57.900Z,0
2017-09-05T00:34:38.471Z,0
2017-09-05T00:35:19.053Z,0
2017-09-05T00:37:52.262Z,0
2017-09-05T00:38:32.830Z,0
2017-09-05T00:39:13.406Z,0
2017-09-05T00:39:53.988Z,0
2017-09-05T00:40:34.580Z,0
2017-09-05T00:41:15.146Z,0
2017-09-05T00:41:55.714Z,0
2017-09-05T00:42:36.298Z,0
2017-09-05T00:43:16.881Z,0
2017-09-05T00:43:57.453Z,0
2017-09-05T00:44:38.034Z,0
2017-09-05T00:45:18.615Z,0
2017-09-05T00:45:59.196Z,0
2017-09-05T00:46:39.772Z,0
2017-09-05T00:47:20.330Z,0
2017-09-05T00:48:00.905Z,0
2017-09-05T00:48:41.494Z,0
2017-09-05T00:49:22.060Z,0
2017-09-05T00:50:02.643Z,0
2017-09-05T00:50:43.221Z,0
2017-09-05T00:51:23.793Z,0
2017-09-05T00:52:04.377Z,0
2017-09-05T00:52:44.948Z,0
2017-09-05T00:53:25.530Z,0
2017-09-05T00:54:06.117Z,0
2017-09-05T00:54:46.700Z,0
2017-09-05T00:55:27.270Z,0
2017-09-05T00:56:07.859Z,0
2017-09-05T00:56:48.438Z,0
2017-09-05T00:57:29.019Z,0
2017-09-05T00:58:09.593Z,0
2017-09-05T00:58:50.169Z,0
2017-09-05T00:59:30.746Z,0
2017-09-05T01:00:11.309Z,0
2017-09-05T01:00:51.891Z,0
2017-09-05T01:01:32.466Z,0
2017-09-05T01:02:27.960Z,0
2017-09-05T01:03:19.051Z,0
2017-09-05T01:03:59.634Z,0
2017-09-05T01:04:40.292Z,0
2017-09-05T01:05:20.911Z,0
2017-09-05T01:06:01.551Z,0
2017-09-05T02:43:47.758Z,0
2017-09-05T02:44:28.331Z,0
2017-09-05T02:45:08.898Z,0
2017-09-05T02:45:49.478Z,0
2017-09-05T02:46:30.067Z,0
2017-09-05T02:47:10.656Z,0
2017-09-05T02:47:51.252Z,0
2017-09-05T02:48:31.824Z,0
2017-09-05T02:49:12.393Z,0
2017-09-05T02:49:52.980Z,0
2017-09-05T02:50:33.557Z,0
2017-09-05T02:51:14.130Z,0
2017-09-05T02:51:54.708Z,0
2017-09-05T02:52:35.291Z,0
2017-09-05T02:53:15.854Z,0
2017-09-05T02:53:56.433Z,0
2017-09-05T02:54:37.014Z,0
2017-09-05T02:55:17.599Z,0
2017-09-05T02:55:58.167Z,0
2017-09-05T02:56:38.743Z,0
2017-09-05T02:57:19.314Z,0
2017-09-05T02:57:59.896Z,0
2017-09-05T02:58:40.472Z,0
2017-09-05T02:59:22.027Z,0
2017-09-05T03:00:02.600Z,0
2017-09-05T03:00:43.182Z,0
2017-09-05T03:01:23.762Z,0
2017-09-05T03:02:04.438Z,0
2017-09-05T03:02:45.764Z,0
2017-09-05T03:03:26.346Z,0
2017-09-05T03:04:06.929Z,0
2017-09-05T03:04:47.502Z,0
2017-09-05T03:05:28.073Z,0
2017-09-05T03:06:08.661Z,0
2017-09-05T03:06:49.243Z,0
2017-09-05T03:07:29.911Z,0
2017-09-05T03:08:10.802Z,0
2017-09-05T03:08:51.704Z,0
2017-09-05T03:09:32.602Z,0
2017-09-05T03:10:13.510Z,0
2017-09-05T03:10:57.324Z,0
2017-09-05T03:11:38.826Z,0
2017-09-05T03:12:19.886Z,0
2017-09-05T03:13:01.765Z,0
2017-09-05T03:13:43.783Z,0
2017-09-05T03:14:24.751Z,0
2017-09-05T03:15:05.394Z,0
2017-09-05T03:15:46.349Z,0
2017-09-05T03:16:27.288Z,0
2017-09-05T03:17:08.299Z,0
2017-09-05T03:17:49.270Z,0
2017-09-05T03:18:30.060Z,0
2017-09-05T03:19:10.641Z,0
2017-09-05T03:19:51.292Z,0
2017-09-05T03:20:31.977Z,0
2017-09-05T03:21:12.639Z,0
2017-09-05T03:21:53.267Z,0
2017-09-05T03:22:33.901Z,0
2017-09-05T03:23:14.761Z,0
2017-09-05T03:23:55.406Z,0
2017-09-05T03:24:35.993Z,0
2017-09-05T03:25:16.797Z,0
2017-09-05T03:25:57.443Z,0
2017-09-05T03:26:38.086Z,0
2017-09-05T03:27:18.657Z,0
2017-09-05T03:27:59.310Z,0
2017-09-05T03:28:39.890Z,0
2017-09-05T03:29:20.504Z,0
2017-09-05T03:30:01.280Z,0
2017-09-05T03:30:41.996Z,0
2017-09-05T03:31:23.258Z,0
2017-09-05T03:32:03.844Z,0
2017-09-05T03:32:44.511Z,0
2017-09-05T03:33:25.114Z,0
2017-09-05T03:34:05.844Z,0
2017-09-05T03:34:46.480Z,0
2017-09-05T03:35:27.197Z,0
2017-09-05T03:36:07.905Z,0
2017-09-05T03:36:48.476Z,0
2017-09-05T03:37:29.058Z,0
2017-09-05T03:38:09.725Z,0
2017-09-05T03:38:50.397Z,0
2017-09-05T03:39:31.067Z,0
2017-09-05T03:40:11.651Z,0
2017-09-05T03:40:52.291Z,0
2017-09-05T03:41:33.016Z,0
2017-09-05T03:42:13.746Z,0
2017-09-05T03:42:54.450Z,0
2017-09-05T03:43:35.317Z,0
2017-09-05T03:44:16.165Z,0
2017-09-05T03:44:56.743Z,0
2017-09-05T03:45:37.349Z,0
2017-09-05T03:46:17.930Z,0
2017-09-05T03:46:58.503Z,0
2017-09-05T03:47:39.082Z,0
2017-09-05T03:48:19.675Z,0
2017-09-05T03:49:00.236Z,0
2017-09-05T03:49:40.810Z,0
2017-09-05T03:50:21.390Z,0
2017-09-05T04:11:58.171Z,0
2017-09-05T04:14:27.191Z,0
2017-09-05T04:18:39.205Z,0
2017-09-05T04:19:22.515Z,0
2017-09-05T04:20:03.156Z,0
2017-09-05T04:20:43.786Z,0
2017-09-05T04:21:26.013Z,0
2017-09-05T04:22:06.550Z,0
2017-09-05T04:22:47.124Z,0
2017-09-05T04:23:27.703Z,0
2017-09-05T04:24:08.295Z,0
2017-09-05T04:24:48.867Z,0
2017-09-05T04:25:29.443Z,0
2017-09-05T04:26:10.019Z,0
2017-09-05T04:26:50.589Z,0
2017-09-05T04:27:31.175Z,5
2017-09-05T04:28:11.749Z,5
2017-09-05T04:28:52.320Z,5
2017-09-05T04:29:32.896Z,5
2017-09-05T04:30:13.477Z,5
2017-09-05T04:30:54.056Z,5
2017-09-05T04:31:34.630Z,5
2017-09-05T04:32:15.217Z,10
2017-09-05T04:32:55.790Z,10
2017-09-05T04:33:36.376Z,10
2017-09-05T04:34:16.954Z,10
2017-09-05T04:34:57.536Z,10
2017-09-05T04:35:38.115Z,10
2017-09-05T04:36:18.692Z,15
2017-09-05T04:36:59.274Z,15
2017-09-05T04:37:39.856Z,15
2017-09-05T04:38:20.434Z,15
2017-09-05T04:39:01.030Z,15
2017-09-05T04:39:41.610Z,20
2017-09-05T04:40:22.177Z,20
2017-09-05T04:41:02.760Z,20
2017-09-05T04:41:43.336Z,20
2017-09-05T04:42:23.912Z,25
2017-09-05T04:43:04.489Z,25
2017-09-05T04:43:45.069Z,25
2017-09-05T04:44:25.653Z,30
2017-09-05T04:45:06.228Z,30
2017-09-05T04:45:46.817Z,35
2017-09-05T04:46:27.393Z,30
2017-09-05T04:47:07.977Z,30
2017-09-05T04:47:48.560Z,35
2017-09-05T04:48:29.134Z,35
2017-09-05T04:49:09.720Z,35
2017-09-05T04:51:27.680Z,40
2017-09-05T04:52:08.270Z,40
2017-09-05T04:52:48.856Z,40
2017-09-05T04:53:29.421Z,45
2017-09-05T04:54:09.982Z,45
2017-09-05T04:54:50.542Z,45
2017-09-05T04:55:31.123Z,50
2017-09-05T04:56:11.700Z,50
2017-09-05T04:56:52.282Z,50
2017-09-05T04:57:32.847Z,50
2017-09-05T04:58:13.412Z,55
2017-09-05T04:58:54.010Z,60
2017-09-05T04:59:34.571Z,70
2017-09-05T05:00:15.142Z,75
2017-09-05T05:00:55.722Z,85
2017-09-05T05:01:36.301Z,85
2017-09-05T05:02:16.870Z,90
2017-09-05T05:02:57.447Z,90
2017-09-05T05:03:38.017Z,90
2017-09-05T05:04:18.616Z,90
2017-09-05T05:04:59.198Z,90
2017-09-05T05:05:39.776Z,90
2017-09-05T05:06:20.356Z,90
2017-09-05T05:08:53.561Z,85
2017-09-05T05:09:34.149Z,85
2017-09-05T05:10:14.710Z,85
2017-09-05T05:10:55.299Z,85
2017-09-05T05:11:35.873Z,90
2017-09-05T05:12:16.961Z,90
2017-09-05T05:12:57.529Z,90
2017-09-05T05:13:38.114Z,90
2017-09-05T05:14:18.698Z,90
2017-09-05T05:14:59.263Z,90
2017-09-05T05:15:39.863Z,90
2017-09-05T05:16:20.426Z,85
2017-09-05T05:17:00.994Z,85
2017-09-05T05:17:42.363Z,80
2017-09-05T05:18:22.964Z,80
2017-09-05T05:19:03.534Z,75
2017-09-05T05:19:44.111Z,80
2017-09-05T05:20:24.692Z,90
2017-09-05T05:21:05.259Z,90
2017-09-05T05:21:45.836Z,95
2017-09-05T05:22:26.417Z,95
2017-09-05T05:23:07.008Z,100
2017-09-05T05:23:47.580Z,100
2017-09-05T05:24:28.157Z,105
2017-09-05T05:25:08.733Z,105
2017-09-05T05:25:49.309Z,110
2017-09-05T05:26:29.894Z,110
2017-09-05T05:27:10.465Z,110
2017-09-05T05:27:51.046Z,110
2017-09-05T05:28:31.622Z,115
2017-09-05T05:29:12.194Z,115
2017-09-05T05:29:52.773Z,120
2017-09-05T05:30:33.370Z,125
2017-09-05T05:31:13.950Z,130
2017-09-05T05:31:54.509Z,140
2017-09-05T05:32:35.089Z,140
2017-09-05T05:33:15.665Z,145
2017-09-05T05:33:56.247Z,150
2017-09-05T05:34:36.828Z,145
2017-09-05T05:35:17.399Z,140
2017-09-05T05:35:57.997Z,140
2017-09-05T05:36:38.583Z,135
2017-09-05T05:37:19.171Z,130
2017-09-05T05:37:59.746Z,130
2017-09-05T05:38:40.829Z,135
2017-09-05T05:39:21.422Z,140
2017-09-05T05:40:01.986Z,140
2017-09-05T05:40:42.567Z,145
2017-09-05T05:41:23.136Z,150
2017-09-05T05:42:03.709Z,150
2017-09-05T05:42:44.290Z,155
2017-09-05T05:43:25.470Z,150
2017-09-05T05:44:06.050Z,150
2017-09-05T05:44:46.640Z,135
2017-09-05T05:45:27.216Z,130
2017-09-05T05:46:07.795Z,125
2017-09-05T05:46:48.379Z,125
2017-09-05T05:47:28.959Z,130
2017-09-05T05:48:09.537Z,135
2017-09-05T05:48:50.105Z,145
2017-09-05T05:49:30.685Z,145
2017-09-05T05:50:11.261Z,150
2017-09-05T05:50:51.848Z,155
2017-09-05T05:51:32.437Z,160
2017-09-05T05:52:13.027Z,165
2017-09-05T05:52:53.597Z,170
2017-09-05T05:53:34.175Z,170
2017-09-05T05:54:14.750Z,170
2017-09-05T05:54:55.336Z,170
2017-09-05T05:55:35.907Z,165
2017-09-05T05:56:16.492Z,160
2017-09-05T05:56:57.088Z,160
2017-09-05T05:57:37.656Z,160
2017-09-05T05:58:18.233Z,175
2017-09-05T05:58:58.819Z,185
2017-09-05T05:59:39.390Z,175
2017-09-05T06:00:19.988Z,160
2017-09-05T06:01:00.527Z,165
2017-09-05T06:01:41.092Z,165
2017-09-05T06:02:21.660Z,170
2017-09-05T06:03:02.981Z,170
2017-09-05T06:03:43.551Z,170
2017-09-05T06:04:24.125Z,170
2017-09-05T06:05:04.708Z,170
2017-09-05T06:05:45.284Z,175
2017-09-05T06:06:26.718Z,205
2017-09-05T06:07:07.311Z,235
2017-09-05T06:07:47.899Z,265
2017-09-05T06:08:28.473Z,280
2017-09-05T06:09:09.050Z,275
2017-09-05T06:09:49.631Z,280
2017-09-05T06:10:30.224Z,285
2017-09-05T06:11:10.806Z,310
2017-09-05T06:11:51.379Z,345
2017-09-05T06:12:31.964Z,370
2017-09-05T06:13:12.564Z,365
2017-09-05T06:13:53.119Z,365
2017-09-05T06:14:33.693Z,365
2017-09-05T06:15:14.267Z,360
2017-09-05T06:15:54.857Z,355
2017-09-05T06:16:35.441Z,335
2017-09-05T06:17:16.025Z,335
2017-09-05T06:17:56.606Z,335
2017-09-05T06:18:37.177Z,340
2017-09-05T06:19:17.761Z,325
2017-09-05T06:19:58.339Z,320
2017-09-05T06:20:38.922Z,335
2017-09-05T06:21:19.502Z,335
2017-09-05T06:22:00.102Z,340
2017-09-05T06:22:40.673Z,350
2017-09-05T06:23:21.251Z,355
2017-09-05T06:24:01.832Z,335
2017-09-05T06:24:42.409Z,295
2017-09-05T06:25:22.987Z,225
2017-09-05T06:26:03.548Z,170
2017-09-05T06:26:44.122Z,155
2017-09-05T06:27:24.709Z,145
2017-09-05T06:28:05.291Z,150
2017-09-05T06:28:45.869Z,165
2017-09-05T06:29:26.441Z,195
2017-09-05T06:30:07.038Z,225
2017-09-05T06:30:47.624Z,240
2017-09-05T06:31:28.192Z,260
2017-09-05T06:32:08.776Z,265
2017-09-05T06:32:49.355Z,260
2017-09-05T06:33:29.967Z,245
2017-09-05T06:34:10.517Z,230
2017-09-05T06:34:51.101Z,220
2017-09-05T06:35:31.681Z,215
2017-09-05T06:36:12.258Z,215
2017-09-05T06:36:52.839Z,220
2017-09-05T06:37:33.427Z,235
2017-09-05T06:38:14.002Z,250
2017-09-05T06:38:54.580Z,260
2017-09-05T06:39:35.156Z,275
2017-09-05T06:40:15.725Z,270
2017-09-05T06:40:56.306Z,260
2017-09-05T06:41:36.886Z,240
2017-09-05T06:42:17.475Z,225
2017-09-05T06:42:58.051Z,220
2017-09-05T06:43:38.629Z,220
2017-09-05T06:44:19.218Z,230
2017-09-05T06:44:59.789Z,240
2017-09-05T06:45:40.362Z,255
2017-09-05T06:46:20.946Z,280
2017-09-05T06:47:01.536Z,315
2017-09-05T06:47:42.104Z,340
2017-09-05T06:48:22.690Z,360
2017-09-05T06:49:03.275Z,370
2017-09-05T06:49:43.848Z,375
2017-09-05T06:50:24.435Z,380
2017-09-05T06:51:05.019Z,400
2017-09-05T06:51:45.598Z,410
2017-09-05T06:52:26.178Z,420
2017-09-05T06:53:06.779Z,420
2017-09-05T06:53:47.351Z,420
2017-09-05T06:54:27.935Z,410
2017-09-05T06:55:08.505Z,390
2017-09-05T06:55:49.094Z,355
2017-09-05T06:56:29.669Z,335
2017-09-05T06:57:10.250Z,315
2017-09-05T07:27:58.787Z,385
2017-09-05T07:28:39.362Z,410
2017-09-05T07:29:19.943Z,445
2017-09-05T07:30:00.512Z,465
2017-09-05T07:30:41.102Z,480
2017-09-05T07:31:21.679Z,495
2017-09-05T07:32:02.265Z,500
2017-09-05T07:32:42.849Z,500
2017-09-05T07:33:23.428Z,490
2017-09-05T07:34:04.005Z,500
2017-09-05T07:34:44.580Z,525
2017-09-05T07:35:25.161Z,550
2017-09-05T07:36:05.750Z,580
2017-09-05T07:36:46.331Z,630
2017-09-05T07:37:26.914Z,710
2017-09-05T07:38:07.507Z,805
2017-09-05T07:38:48.075Z,880
2017-09-05T07:39:28.653Z,880
2017-09-05T07:40:09.239Z,835
2017-09-05T07:40:49.812Z,780
2017-09-05T07:41:30.398Z,740
2017-09-05T07:42:10.977Z,715
2017-09-05T07:42:51.550Z,715
2017-09-05T07:45:24.763Z,775
2017-09-05T07:46:05.334Z,810
2017-09-05T07:46:45.919Z,865
2017-09-05T07:47:26.492Z,920
2017-09-05T07:48:07.084Z,980
2017-09-05T07:48:47.649Z,1010
2017-09-05T07:49:28.262Z,1070
2017-09-05T07:50:08.817Z,1115
2017-09-05T07:50:49.394Z,1285
2017-09-05T07:51:29.985Z,1390
2017-09-05T07:52:10.563Z,1350
2017-09-05T07:52:51.141Z,1385
2017-09-05T07:53:31.711Z,1425
2017-09-05T07:54:27.921Z,1430
2017-09-05T07:55:08.501Z,1460
2017-09-05T07:55:49.079Z,1670
2017-09-05T07:56:29.655Z,1455
2017-09-05T07:57:10.223Z,1705
2017-09-05T07:57:50.799Z,1370
2017-09-05T07:58:31.394Z,1495
2017-09-05T07:59:11.993Z,1455
2017-09-05T07:59:52.572Z,1410
2017-09-05T08:00:33.148Z,1270
2017-09-05T08:01:13.732Z,1140
2017-09-05T08:01:54.318Z,1060
2017-09-05T08:02:34.911Z,1100
2017-09-05T08:03:15.492Z,1270
2017-09-05T08:03:56.080Z,1350
2017-09-05T08:04:36.659Z,1515
2017-09-05T08:05:17.246Z,1690
2017-09-05T08:05:57.841Z,1925
2017-09-05T08:06:38.436Z,2220
2017-09-05T08:07:19.007Z,2950
2017-09-05T08:07:59.588Z,2415
2017-09-05T08:08:40.170Z,1940
2017-09-05T08:09:20.768Z,1630
2017-09-05T08:10:01.346Z,1480
2017-09-05T08:10:41.932Z,1615
2017-09-05T08:11:22.509Z,1410
2017-09-05T08:12:03.082Z,1320
2017-09-05T08:12:43.655Z,1105
2017-09-05T08:13:24.234Z,1060
2017-09-05T08:14:04.813Z,1150
2017-09-05T08:14:45.394Z,1380
2017-09-05T08:15:25.989Z,1915
2017-09-05T08:16:06.585Z,2685
2017-09-05T08:16:47.179Z,2170
2017-09-05T08:17:27.753Z,2085
2017-09-05T08:18:08.333Z,2740
2017-09-05T08:18:48.929Z,2155
2017-09-05T08:19:29.515Z,2345
2017-09-05T08:20:10.097Z,3010
2017-09-05T08:20:50.681Z,3065
2017-09-05T08:21:31.262Z,1910
2017-09-05T08:22:11.854Z,1720
2017-09-05T08:22:52.440Z,1610
2017-09-05T08:23:33.024Z,1520
2017-09-05T08:24:13.613Z,1460
2017-09-05T08:24:54.191Z,1440
2017-09-05T08:25:34.772Z,1345
2017-09-05T08:26:15.360Z,1305
2017-09-05T08:26:55.937Z,1270
2017-09-05T08:27:36.527Z,1245
2017-09-05T08:28:17.108Z,1205
2017-09-05T08:28:57.693Z,1170
2017-09-05T08:29:38.279Z,1130
2017-09-05T08:30:18.851Z,1105
2017-09-05T08:30:59.427Z,1075
2017-09-05T08:31:40.046Z,1065
2017-09-05T08:32:20.595Z,1040
2017-09-05T08:33:01.181Z,1025
2017-09-05T08:33:41.767Z,1040
2017-09-05T08:34:22.351Z,1055
2017-09-05T08:35:02.939Z,1065
2017-09-05T08:35:43.523Z,1065
2017-09-05T08:36:24.114Z,1060
2017-09-05T08:37:04.700Z,1075
2017-09-05T08:37:45.293Z,1075
2017-09-05T08:38:25.886Z,1090
2017-09-05T08:39:06.472Z,1090
2017-09-05T08:40:01.688Z,1090
2017-09-05T08:40:42.266Z,1090
2017-09-05T08:41:22.857Z,1090
2017-09-05T08:42:03.436Z,1085
2017-09-05T08:42:44.021Z,1100
2017-09-05T08:43:24.604Z,1080
2017-09-05T08:44:05.182Z,1085
2017-09-05T08:44:45.769Z,1095
2017-09-05T08:45:26.351Z,1105
2017-09-05T08:46:06.932Z,1120
2017-09-05T08:46:47.518Z,1150
2017-09-05T08:47:28.105Z,1190
2017-09-05T08:48:08.684Z,1235
2017-09-05T08:48:49.268Z,1275
2017-09-05T08:49:29.856Z,1320
2017-09-05T08:50:10.448Z,1445
2017-09-05T08:50:51.032Z,1475
2017-09-05T08:51:31.611Z,1440
2017-09-05T08:52:27.802Z,1490
2017-09-05T08:53:08.384Z,1550
2017-09-05T08:53:48.971Z,1630
2017-09-05T08:54:29.555Z,2100
2017-09-05T08:55:10.146Z,1625
2017-09-05T08:55:50.718Z,1545
2017-09-05T08:56:31.301Z,1705
2017-09-05T08:57:11.880Z,1590
2017-09-05T08:57:52.454Z,1560
2017-09-05T08:58:33.049Z,1570
2017-09-05T08:59:13.621Z,1735
2017-09-05T08:59:54.212Z,1745
2017-09-05T09:00:34.799Z,1650
2017-09-05T09:01:15.390Z,1775
2017-09-05T09:01:55.962Z,1735
2017-09-05T09:02:36.544Z,1745
2017-09-05T09:03:17.133Z,1885
2017-09-05T09:03:57.720Z,1925
2017-09-05T09:04:38.298Z,1800
2017-09-05T09:05:18.884Z,1720
2017-09-05T09:05:59.476Z,1660
2017-09-05T09:06:40.060Z,1695
2017-09-05T09:07:20.649Z,1975
2017-09-05T09:08:01.226Z,1720
2017-09-05T09:08:41.818Z,1850
2017-09-05T09:09:22.404Z,2200
2017-09-05T09:10:02.976Z,1735
2017-09-05T09:10:43.578Z,1660
2017-09-05T09:11:24.187Z,1695
2017-09-05T09:12:04.746Z,1800
2017-09-05T09:12:45.337Z,1900
2017-09-05T09:13:25.921Z,2070
2017-09-05T09:14:06.502Z,2550
2017-09-05T09:14:47.093Z,1970
2017-09-05T09:15:27.682Z,1855
2017-09-05T09:16:08.275Z,2345
2017-09-05T09:16:48.859Z,2000
2017-09-05T09:17:29.449Z,1945
2017-09-05T09:18:10.035Z,2340
2017-09-05T09:18:50.618Z,2105
2017-09-05T09:19:31.210Z,2015
2017-09-05T09:20:11.795Z,2140
2017-09-05T09:20:52.382Z,2410
2017-09-05T09:21:32.970Z,2380
2017-09-05T09:22:13.552Z,2450
2017-09-05T09:22:54.127Z,3220
2017-09-05T09:23:34.721Z,5900
2017-09-05T09:24:15.300Z,2800
2017-09-05T09:24:55.890Z,2900
2017-09-05T09:25:36.467Z,3645
2017-09-05T09:26:17.065Z,3070
2017-09-05T09:26:57.678Z,2360
2017-09-05T09:27:38.269Z,2510
2017-09-05T09:28:18.851Z,2265
2017-09-05T09:28:59.449Z,2215
2017-09-05T09:29:40.031Z,2315
2017-09-05T09:30:20.626Z,3740
2017-09-05T09:31:01.217Z,3085
2017-09-05T09:31:41.803Z,3590
2017-09-05T09:32:22.383Z,3820
2017-09-05T09:33:02.981Z,2655
2017-09-05T09:33:43.574Z,4470
2017-09-05T09:34:24.155Z,2520
2017-09-05T09:35:04.751Z,2115
2017-09-05T09:35:45.351Z,1820
2017-09-05T09:36:25.945Z,1820
2017-09-05T09:37:06.538Z,1755
2017-09-05T09:37:47.120Z,1815
2017-09-05T09:38:27.712Z,1745
2017-09-05T09:39:08.310Z,1625
2017-09-05T09:39:48.897Z,1590
2017-09-05T09:40:29.484Z,1615
2017-09-05T09:41:10.075Z,1560
2017-09-05T09:41:50.660Z,1635
2017-09-05T09:42:31.254Z,2095
2017-09-05T09:43:11.852Z,3660
2017-09-05T09:43:52.439Z,3380
2017-09-05T09:44:33.026Z,2845
2017-09-05T09:45:13.613Z,4535
2017-09-05T09:45:54.215Z,5645
2017-09-05T09:46:34.802Z,4635
2017-09-05T09:47:15.399Z,4880
2017-09-05T09:47:55.986Z,4740
2017-09-05T09:48:36.575Z,2355
2017-09-05T09:49:17.169Z,3305
2017-09-05T09:49:57.752Z,2570
2017-09-05T09:50:38.332Z,2865
2017-09-05T09:51:18.927Z,2400
2017-09-05T09:51:59.505Z,2145
2017-09-05T09:52:40.117Z,1825
2017-09-05T09:53:20.707Z,1710
2017-09-05T09:54:01.299Z,1920
2017-09-05T09:54:41.882Z,1805
2017-09-05T09:55:22.470Z,2115
2017-09-05T09:56:03.072Z,2790
2017-09-05T09:56:43.656Z,2030
2017-09-05T09:57:24.242Z,2015
2017-09-05T09:58:04.837Z,1860
2017-09-05T09:58:45.428Z,1895
2017-09-05T09:59:26.153Z,2310
2017-09-05T10:00:06.796Z,1670
2017-09-05T10:00:47.442Z,1685
2017-09-05T10:01:28.161Z,1595
2017-09-05T10:02:08.869Z,1540
2017-09-05T10:02:49.520Z,1530
2017-09-05T10:03:30.349Z,1595
2017-09-05T10:04:10.957Z,2105
2017-09-05T10:04:51.624Z,2810
2017-09-05T10:05:32.296Z,2015
2017-09-05T10:06:12.972Z,1800
2017-09-05T10:06:53.641Z,1670
2017-09-05T10:07:34.275Z,1775
2017-09-05T10:08:15.008Z,1930
2017-09-05T10:08:55.676Z,1970
2017-09-05T10:09:36.279Z,1920
2017-09-05T10:10:16.941Z,1915
2017-09-05T10:10:57.617Z,1890
2017-09-05T10:11:38.258Z,1805
2017-09-05T10:12:18.989Z,1875
2017-09-05T10:12:59.612Z,2060
2017-09-05T10:13:40.319Z,2080
2017-09-05T10:14:21.086Z,2095
2017-09-05T10:15:01.845Z,1920
2017-09-05T10:15:42.528Z,1790
2017-09-05T10:16:23.239Z,1725
2017-09-05T10:17:04.080Z,1725
2017-09-05T10:17:44.728Z,1900
2017-09-05T10:18:25.324Z,1975
2017-09-05T10:19:05.918Z,2330
2017-09-05T10:19:46.513Z,2765
2017-09-05T10:20:27.092Z,2065
2017-09-05T10:21:07.679Z,1990
2017-09-05T10:21:48.291Z,2700
2017-09-05T10:22:28.851Z,2070
2017-09-05T10:23:09.430Z,2560
2017-09-05T10:23:50.024Z,2410
2017-09-05T10:24:30.610Z,2455
2017-09-05T10:25:11.195Z,2645
2017-09-05T10:25:51.780Z,2885
2017-09-05T10:26:32.366Z,4870
2017-09-05T10:27:12.958Z,2995
2017-09-05T10:27:53.552Z,2420
2017-09-05T10:28:34.142Z,3520
2017-09-05T10:29:14.719Z,3575
2017-09-05T10:29:55.305Z,3080
2017-09-05T10:30:35.885Z,2080
2017-09-05T10:31:16.474Z,2055
2017-09-05T10:31:57.069Z,1805
2017-09-05T10:32:37.657Z,3105
2017-09-05T10:33:18.251Z,2200
2017-09-05T10:33:58.851Z,1910
2017-09-05T10:34:39.445Z,2280
2017-09-05T10:35:20.032Z,2235
2017-09-05T10:36:00.624Z,3030
2017-09-05T10:36:41.212Z,2530
2017-09-05T10:37:21.805Z,3575
2017-09-05T10:38:02.395Z,4190
2017-09-05T10:38:42.985Z,2290
2017-09-05T10:39:23.573Z,3250
2017-09-05T10:40:04.174Z,3995
2017-09-05T10:40:44.762Z,2860
2017-09-05T10:41:25.351Z,4630
2017-09-05T10:42:05.943Z,4985
2017-09-05T10:42:46.539Z,2480
2017-09-05T10:43:27.127Z,2065
2017-09-05T10:44:07.754Z,3590
2017-09-05T10:44:48.321Z,4335
2017-09-05T10:45:28.922Z,2630
2017-09-05T10:46:09.520Z,4510
2017-09-05T10:46:50.112Z,2560
2017-09-05T10:47:30.702Z,4405
2017-09-05T10:48:11.287Z,2350
2017-09-05T10:48:51.872Z,1640
2017-09-05T10:49:32.465Z,1670
2017-09-05T10:50:13.052Z,1625
2017-09-05T10:50:53.658Z,1605
2017-09-05T10:51:34.249Z,1535
2017-09-05T10:52:14.853Z,1445
2017-09-05T10:52:55.447Z,1350
2017-09-05T10:53:36.035Z,1340
2017-09-05T10:54:16.625Z,1300
2017-09-05T10:54:57.221Z,1370
2017-09-05T10:55:37.821Z,1415
2017-09-05T10:56:18.406Z,1445
2017-09-05T10:56:59.007Z,1490
2017-09-05T10:57:39.604Z,1500
2017-09-05T10:58:20.196Z,1550
2017-09-05T10:59:00.780Z,1565
2017-09-05T10:59:41.370Z,1590
2017-09-05T11:00:21.964Z,1575
2017-09-05T11:01:02.550Z,1575
2017-09-05T11:01:43.133Z,1595
2017-09-05T11:02:23.733Z,1555
2017-09-05T11:03:04.314Z,1480
2017-09-05T11:03:44.900Z,1390
2017-09-05T11:04:25.494Z,1330
2017-09-05T11:05:06.079Z,1330
2017-09-05T11:05:46.673Z,1305
2017-09-05T11:06:27.255Z,1285
2017-09-05T11:07:07.854Z,1270
2017-09-05T11:07:48.436Z,1245
2017-09-05T11:08:29.024Z,1215
2017-09-05T11:09:09.617Z,1210
2017-09-05T11:09:50.212Z,1185
2017-09-05T11:10:30.797Z,1185
2017-09-05T11:11:11.388Z,1135
2017-09-05T11:11:51.976Z,1095
2017-09-05T11:12:32.561Z,1065
2017-09-05T11:13:13.154Z,1090
2017-09-05T11:13:53.738Z,1140
2017-09-05T11:14:34.331Z,1150
2017-09-05T11:15:14.923Z,1065
2017-09-05T11:15:55.516Z,1045
2017-09-05T11:16:47.023Z,1065
2017-09-05T11:17:27.620Z,1060
2017-09-05T11:18:08.205Z,1010
2017-09-05T11:18:48.792Z,960
2017-09-05T11:19:29.378Z,885
2017-09-05T11:20:09.957Z,845
2017-09-05T11:20:50.548Z,820
2017-09-05T11:21:31.138Z,805
2017-09-05T11:22:11.726Z,790
2017-09-05T11:22:52.308Z,765
2017-09-05T11:23:32.896Z,755
2017-09-05T11:24:13.478Z,755
2017-09-05T11:24:54.063Z,755
2017-09-05T11:25:34.652Z,755
2017-09-05T11:27:52.633Z,745
2017-09-05T11:28:33.225Z,785
2017-09-05T11:29:13.809Z,845
2017-09-05T11:29:54.396Z,900
2017-09-05T11:30:34.988Z,975
2017-09-05T11:31:17.266Z,940
2017-09-05T11:31:57.839Z,945
2017-09-05T11:32:38.420Z,875
2017-09-05T11:33:19.005Z,845
2017-09-05T11:33:59.589Z,845
2017-09-05T11:34:40.178Z,865
2017-09-05T11:35:20.756Z,870
2017-09-05T11:36:01.340Z,800
2017-09-05T11:36:41.922Z,770
2017-09-05T11:37:22.511Z,740
2017-09-05T11:38:03.096Z,680
2017-09-05T11:38:43.670Z,620
2017-09-05T11:39:24.255Z,575
2017-09-05T11:40:04.837Z,560
2017-09-05T11:40:45.416Z,560
2017-09-05T11:41:25.989Z,595
2017-09-05T11:42:06.574Z,670
2017-09-05T11:42:47.134Z,665
2017-09-05T11:43:27.730Z,660
2017-09-05T11:44:08.312Z,625
2017-09-05T11:44:48.898Z,600
2017-09-05T11:45:29.494Z,605
2017-09-05T11:46:10.110Z,610
2017-09-05T11:46:50.672Z,640
2017-09-05T11:47:31.255Z,660
2017-09-05T11:48:11.841Z,710
2017-09-05T11:48:52.425Z,715
2017-09-05T11:49:33.003Z,675
2017-09-05T11:50:13.581Z,665
2017-09-05T11:50:54.169Z,690
2017-09-05T11:51:34.747Z,660
2017-09-05T11:52:15.314Z,620
2017-09-05T11:52:55.895Z,580
2017-09-05T11:53:36.475Z,550
2017-09-05T11:54:17.049Z,545
2017-09-05T11:54:57.626Z,555
2017-09-05T11:55:38.207Z,530
2017-09-05T11:56:18.782Z,535
2017-09-05T11:56:59.361Z,525
2017-09-05T11:57:39.951Z,510
2017-09-05T11:58:20.537Z,485
2017-09-05T11:59:01.118Z,495
2017-09-05T11:59:41.691Z,540
2017-09-05T12:00:22.264Z,595
2017-09-05T12:01:02.824Z,620
2017-09-05T12:01:43.415Z,630
2017-09-05T12:02:23.995Z,635
2017-09-05T12:03:04.599Z,615
2017-09-05T12:03:45.176Z,610
2017-09-05T12:04:25.761Z,605
2017-09-05T12:05:06.345Z,600
2017-09-05T12:05:46.923Z,575
2017-09-05T12:06:27.480Z,540
2017-09-05T12:09:05.803Z,470
2017-09-05T12:09:46.391Z,460
2017-09-05T12:10:26.964Z,440
2017-09-05T12:11:07.555Z,435